This is the latest recevied weather packets stored in our database for station/object SP2WPY-13. If no packets are shown the sender has not sent any weather packets the latest 1 day(s).
| Time | Temp. | Humidity | Pressure | Rain* | Wind** | Luminosity | Snow |
|---|---|---|---|---|---|---|---|
| 1777968997 | 17.78° C | 38% | 1013.5 hPa | - | 1.34 m/s, 112° | - | - |
| 1777968677 | 17.78° C | 37% | 1013.6 hPa | - | 0.89 m/s, 78° | - | - |
| 1777968404 | 18.33° C | 38% | 1013.6 hPa | - | 1.34 m/s, 58° | - | - |
| 1777968084 | 18.89° C | 38% | 1013.5 hPa | - | 2.24 m/s, 111° | - | - |
| 1777967764 | 18.33° C | 38% | 1013.5 hPa | - | 0.89 m/s, 110° | - | - |
| 1777967490 | 18.89° C | 38% | 1013.5 hPa | - | 1.79 m/s, 98° | - | - |
| 1777967170 | 19.44° C | 38% | 1013.4 hPa | - | 0.89 m/s, 164° | - | - |
| 1777966897 | 19.44° C | 37% | 1013.4 hPa | - | 0.89 m/s, 35° | - | - |
| 1777966578 | 18.89° C | 39% | 1013.3 hPa | - | 0.89 m/s, 50° | - | - |
| 1777966303 | 18.33° C | 39% | 1013.4 hPa | - | 0.89 m/s, 57° | - | - |
| 1777965984 | 18.89° C | 35% | 1013.4 hPa | - | 0.89 m/s, 53° | - | - |
| 1777965663 | 19.44° C | 34% | 1013.4 hPa | - | 1.34 m/s, 100° | - | - |
| 1777965390 | 20.56° C | 33% | 1013.3 hPa | - | 1.34 m/s, 25° | - | - |
| 1777965071 | 20.56° C | 33% | 1013.3 hPa | - | 0.45 m/s, 268° | - | - |
| 1777964796 | 20° C | 36% | 1013.3 hPa | - | 0.45 m/s, 298° | - | - |
| 1777964477 | 20° C | 36% | 1013.4 hPa | - | 1.34 m/s, 27° | - | - |
| 1777964202 | 20° C | 38% | 1013.4 hPa | - | 0.45 m/s, 302° | - | - |
| 1777963883 | 19.44° C | 41% | 1013.4 hPa | - | 1.34 m/s, 103° | - | - |
| 1777963563 | 18.89° C | 45% | 1013.5 hPa | - | 0.89 m/s, 83° | - | - |
| 1777963288 | 18.33° C | 48% | 1013.6 hPa | - | 0.45 m/s, 136° | - | - |
| 1777962968 | 17.22° C | 47% | 1013.6 hPa | - | 0.45 m/s, 189° | - | - |
| 1777962694 | 16.11° C | 49% | 1013.7 hPa | - | 0.89 m/s, 98° | - | - |
| 1777962374 | 15.56° C | 49% | 1013.8 hPa | - | 1.34 m/s, 260° | - | - |
| 1777962100 | 15° C | 46% | 1013.8 hPa | - | 1.34 m/s, 251° | - | - |
| 1777961781 | 15.56° C | 46% | 1013.8 hPa | - | 1.34 m/s, 249° | - | - |
* Rain since midnight (hover to see other rain measurements)
** Current wind speed in m/s (hover to see current wind gust speed)